sensor_id;sensor_type;location;lat;lon;timestamp;P1;durP1;ratioP1;P2;durP2;ratioP2
5823;SDS011;2938;52.254;12.988;2022-09-12T00:01:04;5.88;;;5.05;;
5823;SDS011;2938;52.254;12.988;2022-09-12T00:03:37;6.22;;;5.63;;
5823;SDS011;2938;52.254;12.988;2022-09-12T00:06:17;6.35;;;5.57;;
5823;SDS011;2938;52.254;12.988;2022-09-12T00:08:44;6.20;;;5.70;;
5823;SDS011;2938;52.254;12.988;2022-09-12T00:11:10;7.25;;;5.90;;
5823;SDS011;2938;52.254;12.988;2022-09-12T00:13:44;5.75;;;5.10;;
5823;SDS011;2938;52.254;12.988;2022-09-12T00:18:37;6.70;;;5.72;;
5823;SDS011;2938;52.254;12.988;2022-09-12T00:21:03;12.40;;;7.35;;
5823;SDS011;2938;52.254;12.988;2022-09-12T00:23:29;10.65;;;7.03;;
5823;SDS011;2938;52.254;12.988;2022-09-12T00:25:55;7.57;;;6.60;;
5823;SDS011;2938;52.254;12.988;2022-09-12T00:28:20;14.55;;;6.10;;
5823;SDS011;2938;52.254;12.988;2022-09-12T00:30:46;6.35;;;5.85;;
5823;SDS011;2938;52.254;12.988;2022-09-12T00:33:13;8.90;;;6.60;;
5823;SDS011;2938;52.254;12.988;2022-09-12T00:35:40;7.80;;;6.80;;
5823;SDS011;2938;52.254;12.988;2022-09-12T00:38:11;7.57;;;6.43;;
5823;SDS011;2938;52.254;12.988;2022-09-12T00:40:38;7.75;;;6.57;;
5823;SDS011;2938;52.254;12.988;2022-09-12T00:43:04;6.47;;;5.80;;
5823;SDS011;2938;52.254;12.988;2022-09-12T00:45:30;12.60;;;5.60;;
5823;SDS011;2938;52.254;12.988;2022-09-12T00:47:57;7.13;;;5.22;;
5823;SDS011;2938;52.254;12.988;2022-09-12T00:50:26;5.50;;;5.00;;
5823;SDS011;2938;52.254;12.988;2022-09-12T00:52:53;12.10;;;7.20;;
5823;SDS011;2938;52.254;12.988;2022-09-12T00:55:23;6.90;;;5.53;;
5823;SDS011;2938;52.254;12.988;2022-09-12T00:57:53;6.60;;;5.03;;
5823;SDS011;2938;52.254;12.988;2022-09-12T01:00:21;7.95;;;5.00;;
5823;SDS011;2938;52.254;12.988;2022-09-12T01:02:50;4.88;;;4.30;;
5823;SDS011;2938;52.254;12.988;2022-09-12T01:05:20;6.07;;;4.82;;
5823;SDS011;2938;52.254;12.988;2022-09-12T01:07:46;6.90;;;4.88;;
5823;SDS011;2938;52.254;12.988;2022-09-12T01:10:14;6.75;;;4.85;;
5823;SDS011;2938;52.254;12.988;2022-09-12T01:12:40;15.25;;;7.18;;
5823;SDS011;2938;52.254;12.988;2022-09-12T01:15:07;18.00;;;5.45;;
5823;SDS011;2938;52.254;12.988;2022-09-12T01:17:40;5.85;;;5.35;;
5823;SDS011;2938;52.254;12.988;2022-09-12T01:23:09;6.93;;;5.70;;
5823;SDS011;2938;52.254;12.988;2022-09-12T01:25:59;5.05;;;4.63;;
5823;SDS011;2938;52.254;12.988;2022-09-12T01:31:22;6.53;;;5.25;;
5823;SDS011;2938;52.254;12.988;2022-09-12T01:34:15;5.47;;;4.93;;
5823;SDS011;2938;52.254;12.988;2022-09-12T01:39:28;5.43;;;4.93;;
5823;SDS011;2938;52.254;12.988;2022-09-12T01:42:07;5.65;;;5.15;;
5823;SDS011;2938;52.254;12.988;2022-09-12T01:44:50;6.78;;;5.63;;
5823;SDS011;2938;52.254;12.988;2022-09-12T01:47:39;6.38;;;5.50;;
5823;SDS011;2938;52.254;12.988;2022-09-12T01:50:27;7.68;;;5.28;;
5823;SDS011;2938;52.254;12.988;2022-09-12T01:52:52;8.93;;;6.32;;
5823;SDS011;2938;52.254;12.988;2022-09-12T01:55:27;7.45;;;5.50;;
5823;SDS011;2938;52.254;12.988;2022-09-12T01:58:13;5.68;;;4.88;;
5823;SDS011;2938;52.254;12.988;2022-09-12T02:00:42;8.18;;;5.32;;
5823;SDS011;2938;52.254;12.988;2022-09-12T02:03:19;5.95;;;5.30;;
5823;SDS011;2938;52.254;12.988;2022-09-12T02:08:25;7.57;;;5.60;;
5823;SDS011;2938;52.254;12.988;2022-09-12T02:11:00;6.05;;;5.47;;
5823;SDS011;2938;52.254;12.988;2022-09-12T02:13:33;11.32;;;6.07;;
5823;SDS011;2938;52.254;12.988;2022-09-12T02:16:12;11.70;;;5.82;;
5823;SDS011;2938;52.254;12.988;2022-09-12T02:18:46;8.02;;;5.60;;
5823;SDS011;2938;52.254;12.988;2022-09-12T02:21:20;4.28;;;3.90;;
5823;SDS011;2938;52.254;12.988;2022-09-12T02:23:47;4.85;;;4.45;;
5823;SDS011;2938;52.254;12.988;2022-09-12T02:26:19;6.88;;;4.80;;
5823;SDS011;2938;52.254;12.988;2022-09-12T02:28:53;5.78;;;5.28;;
5823;SDS011;2938;52.254;12.988;2022-09-12T02:39:19;8.85;;;6.07;;
5823;SDS011;2938;52.254;12.988;2022-09-12T02:41:51;7.00;;;5.07;;
5823;SDS011;2938;52.254;12.988;2022-09-12T02:44:18;6.30;;;5.75;;
5823;SDS011;2938;52.254;12.988;2022-09-12T02:46:48;9.18;;;6.07;;
5823;SDS011;2938;52.254;12.988;2022-09-12T02:49:15;7.40;;;6.50;;
5823;SDS011;2938;52.254;12.988;2022-09-12T02:51:41;7.05;;;5.57;;
5823;SDS011;2938;52.254;12.988;2022-09-12T02:54:06;6.90;;;5.05;;
5823;SDS011;2938;52.254;12.988;2022-09-12T02:56:33;7.88;;;5.63;;
5823;SDS011;2938;52.254;12.988;2022-09-12T02:59:00;11.75;;;7.28;;
5823;SDS011;2938;52.254;12.988;2022-09-12T03:06:34;8.32;;;5.75;;
5823;SDS011;2938;52.254;12.988;2022-09-12T03:09:14;7.80;;;5.78;;
5823;SDS011;2938;52.254;12.988;2022-09-12T03:16:52;7.43;;;5.68;;
5823;SDS011;2938;52.254;12.988;2022-09-12T03:19:32;6.63;;;5.78;;
5823;SDS011;2938;52.254;12.988;2022-09-12T03:22:26;6.88;;;6.13;;
5823;SDS011;2938;52.254;12.988;2022-09-12T03:25:24;6.00;;;5.45;;
5823;SDS011;2938;52.254;12.988;2022-09-12T03:28:00;7.40;;;5.28;;
5823;SDS011;2938;52.254;12.988;2022-09-12T03:30:35;7.70;;;6.95;;
5823;SDS011;2938;52.254;12.988;2022-09-12T03:33:05;7.40;;;5.80;;
5823;SDS011;2938;52.254;12.988;2022-09-12T03:35:30;4.95;;;4.53;;
5823;SDS011;2938;52.254;12.988;2022-09-12T03:37:55;9.63;;;5.82;;
5823;SDS011;2938;52.254;12.988;2022-09-12T03:40:21;7.30;;;5.50;;
5823;SDS011;2938;52.254;12.988;2022-09-12T03:42:46;7.82;;;5.38;;
5823;SDS011;2938;52.254;12.988;2022-09-12T03:45:12;8.77;;;6.70;;
5823;SDS011;2938;52.254;12.988;2022-09-12T03:47:37;9.50;;;7.50;;
5823;SDS011;2938;52.254;12.988;2022-09-12T03:50:03;6.60;;;6.00;;
5823;SDS011;2938;52.254;12.988;2022-09-12T03:52:30;8.63;;;6.95;;
5823;SDS011;2938;52.254;12.988;2022-09-12T03:54:55;9.50;;;5.85;;
5823;SDS011;2938;52.254;12.988;2022-09-12T03:57:21;7.13;;;5.50;;
5823;SDS011;2938;52.254;12.988;2022-09-12T03:59:47;7.38;;;5.80;;
5823;SDS011;2938;52.254;12.988;2022-09-12T04:02:14;6.38;;;5.78;;
5823;SDS011;2938;52.254;12.988;2022-09-12T04:04:39;7.35;;;6.22;;
5823;SDS011;2938;52.254;12.988;2022-09-12T04:07:07;7.15;;;6.45;;
5823;SDS011;2938;52.254;12.988;2022-09-12T04:09:33;7.43;;;6.28;;
5823;SDS011;2938;52.254;12.988;2022-09-12T04:11:58;8.43;;;6.40;;
5823;SDS011;2938;52.254;12.988;2022-09-12T04:14:24;9.52;;;7.00;;
5823;SDS011;2938;52.254;12.988;2022-09-12T04:16:49;9.55;;;6.25;;
5823;SDS011;2938;52.254;12.988;2022-09-12T04:19:14;8.63;;;7.82;;
5823;SDS011;2938;52.254;12.988;2022-09-12T04:21:40;10.18;;;6.22;;
5823;SDS011;2938;52.254;12.988;2022-09-12T04:24:05;13.50;;;8.10;;
5823;SDS011;2938;52.254;12.988;2022-09-12T04:26:31;17.20;;;6.63;;
5823;SDS011;2938;52.254;12.988;2022-09-12T04:28:56;8.02;;;6.75;;
5823;SDS011;2938;52.254;12.988;2022-09-12T04:31:22;7.43;;;6.22;;
5823;SDS011;2938;52.254;12.988;2022-09-12T04:33:52;13.40;;;6.22;;
5823;SDS011;2938;52.254;12.988;2022-09-12T04:36:19;5.70;;;5.18;;
5823;SDS011;2938;52.254;12.988;2022-09-12T04:38:45;4.93;;;4.53;;
5823;SDS011;2938;52.254;12.988;2022-09-12T04:41:16;6.68;;;5.03;;
5823;SDS011;2938;52.254;12.988;2022-09-12T04:43:42;4.97;;;4.57;;
5823;SDS011;2938;52.254;12.988;2022-09-12T04:46:11;8.55;;;5.35;;
5823;SDS011;2938;52.254;12.988;2022-09-12T04:48:39;5.40;;;4.97;;
5823;SDS011;2938;52.254;12.988;2022-09-12T04:51:05;8.07;;;5.45;;
5823;SDS011;2938;52.254;12.988;2022-09-12T04:53:35;11.90;;;6.35;;
5823;SDS011;2938;52.254;12.988;2022-09-12T04:56:02;5.18;;;4.78;;
5823;SDS011;2938;52.254;12.988;2022-09-12T04:58:29;9.35;;;6.18;;
5823;SDS011;2938;52.254;12.988;2022-09-12T05:00:55;6.38;;;5.78;;
5823;SDS011;2938;52.254;12.988;2022-09-12T05:03:28;8.43;;;7.55;;
5823;SDS011;2938;52.254;12.988;2022-09-12T05:05:54;10.98;;;7.28;;
5823;SDS011;2938;52.254;12.988;2022-09-12T05:08:19;9.18;;;6.78;;
5823;SDS011;2938;52.254;12.988;2022-09-12T05:10:45;8.70;;;6.30;;
5823;SDS011;2938;52.254;12.988;2022-09-12T05:13:10;9.30;;;7.20;;
5823;SDS011;2938;52.254;12.988;2022-09-12T05:15:35;6.65;;;5.03;;
5823;SDS011;2938;52.254;12.988;2022-09-12T05:18:01;8.13;;;7.28;;
5823;SDS011;2938;52.254;12.988;2022-09-12T05:20:27;12.70;;;7.15;;
5823;SDS011;2938;52.254;12.988;2022-09-12T05:22:52;12.75;;;6.90;;
5823;SDS011;2938;52.254;12.988;2022-09-12T05:25:19;7.60;;;5.47;;
5823;SDS011;2938;52.254;12.988;2022-09-12T05:27:45;16.15;;;7.60;;
5823;SDS011;2938;52.254;12.988;2022-09-12T05:30:10;10.13;;;7.13;;
5823;SDS011;2938;52.254;12.988;2022-09-12T05:32:36;6.78;;;5.88;;
5823;SDS011;2938;52.254;12.988;2022-09-12T05:35:02;8.45;;;5.78;;
5823;SDS011;2938;52.254;12.988;2022-09-12T05:37:28;8.40;;;4.47;;
5823;SDS011;2938;52.254;12.988;2022-09-12T05:39:53;5.97;;;4.20;;
5823;SDS011;2938;52.254;12.988;2022-09-12T05:42:18;9.10;;;4.55;;
5823;SDS011;2938;52.254;12.988;2022-09-12T05:55:09;8.13;;;3.45;;
5823;SDS011;2938;52.254;12.988;2022-09-12T05:57:35;3.90;;;3.53;;
5823;SDS011;2938;52.254;12.988;2022-09-12T06:00:01;5.90;;;2.92;;
5823;SDS011;2938;52.254;12.988;2022-09-12T06:02:27;7.85;;;3.80;;
5823;SDS011;2938;52.254;12.988;2022-09-12T06:04:53;7.80;;;2.90;;
5823;SDS011;2938;52.254;12.988;2022-09-12T06:07:19;3.97;;;3.20;;
5823;SDS011;2938;52.254;12.988;2022-09-12T06:09:48;4.10;;;3.72;;
5823;SDS011;2938;52.254;12.988;2022-09-12T06:12:13;4.00;;;3.60;;
5823;SDS011;2938;52.254;12.988;2022-09-12T06:14:38;4.13;;;3.72;;
5823;SDS011;2938;52.254;12.988;2022-09-12T06:17:04;5.30;;;4.80;;
5823;SDS011;2938;52.254;12.988;2022-09-12T06:19:29;12.43;;;4.53;;
5823;SDS011;2938;52.254;12.988;2022-09-12T06:21:55;4.93;;;4.10;;
5823;SDS011;2938;52.254;12.988;2022-09-12T06:24:21;5.38;;;3.75;;
5823;SDS011;2938;52.254;12.988;2022-09-12T06:26:47;8.60;;;5.30;;
5823;SDS011;2938;52.254;12.988;2022-09-12T06:29:13;10.63;;;4.43;;
5823;SDS011;2938;52.254;12.988;2022-09-12T06:31:39;10.48;;;4.90;;
5823;SDS011;2938;52.254;12.988;2022-09-12T06:34:06;11.82;;;4.43;;
5823;SDS011;2938;52.254;12.988;2022-09-12T06:36:37;29.50;;;5.93;;
5823;SDS011;2938;52.254;12.988;2022-09-12T06:39:08;20.33;;;6.47;;
5823;SDS011;2938;52.254;12.988;2022-09-12T06:41:36;15.30;;;6.38;;
5823;SDS011;2938;52.254;12.988;2022-09-12T06:44:02;21.50;;;5.78;;
5823;SDS011;2938;52.254;12.988;2022-09-12T06:46:28;13.80;;;6.43;;
5823;SDS011;2938;52.254;12.988;2022-09-12T06:48:55;14.82;;;5.68;;
5823;SDS011;2938;52.254;12.988;2022-09-12T06:51:21;8.10;;;5.25;;
5823;SDS011;2938;52.254;12.988;2022-09-12T06:53:47;6.55;;;5.30;;
5823;SDS011;2938;52.254;12.988;2022-09-12T06:56:17;6.45;;;5.50;;
5823;SDS011;2938;52.254;12.988;2022-09-12T06:58:43;13.50;;;6.63;;
5823;SDS011;2938;52.254;12.988;2022-09-12T07:01:11;8.38;;;6.57;;
5823;SDS011;2938;52.254;12.988;2022-09-12T07:03:38;6.68;;;5.28;;
5823;SDS011;2938;52.254;12.988;2022-09-12T07:06:04;6.80;;;5.40;;
5823;SDS011;2938;52.254;12.988;2022-09-12T07:08:32;16.42;;;7.03;;
5823;SDS011;2938;52.254;12.988;2022-09-12T07:10:59;13.05;;;6.68;;
5823;SDS011;2938;52.254;12.988;2022-09-12T07:13:25;9.20;;;5.97;;
5823;SDS011;2938;52.254;12.988;2022-09-12T07:15:50;10.13;;;4.82;;
5823;SDS011;2938;52.254;12.988;2022-09-12T07:18:16;7.88;;;5.18;;
5823;SDS011;2938;52.254;12.988;2022-09-12T07:20:41;4.28;;;3.85;;
5823;SDS011;2938;52.254;12.988;2022-09-12T07:23:07;7.07;;;4.90;;
5823;SDS011;2938;52.254;12.988;2022-09-12T07:25:33;5.15;;;4.20;;
5823;SDS011;2938;52.254;12.988;2022-09-12T07:27:58;5.28;;;3.80;;
5823;SDS011;2938;52.254;12.988;2022-09-12T07:30:23;4.68;;;4.20;;
5823;SDS011;2938;52.254;12.988;2022-09-12T07:32:52;4.57;;;4.18;;
5823;SDS011;2938;52.254;12.988;2022-09-12T07:35:18;4.60;;;3.83;;
5823;SDS011;2938;52.254;12.988;2022-09-12T07:37:44;3.78;;;3.47;;
5823;SDS011;2938;52.254;12.988;2022-09-12T07:40:09;8.93;;;3.83;;
5823;SDS011;2938;52.254;12.988;2022-09-12T07:42:35;6.18;;;3.53;;
5823;SDS011;2938;52.254;12.988;2022-09-12T07:45:00;4.68;;;3.92;;
5823;SDS011;2938;52.254;12.988;2022-09-12T07:47:25;5.55;;;3.47;;
5823;SDS011;2938;52.254;12.988;2022-09-12T07:49:51;3.22;;;3.03;;
5823;SDS011;2938;52.254;12.988;2022-09-12T07:52:16;3.22;;;2.97;;
5823;SDS011;2938;52.254;12.988;2022-09-12T07:54:42;10.95;;;3.00;;
5823;SDS011;2938;52.254;12.988;2022-09-12T07:57:11;4.05;;;2.70;;
5823;SDS011;2938;52.254;12.988;2022-09-12T08:03:13;2.05;;;1.85;;
5823;SDS011;2938;52.254;12.988;2022-09-12T08:06:08;4.72;;;1.88;;
5823;SDS011;2938;52.254;12.988;2022-09-12T08:09:06;2.78;;;2.33;;
5823;SDS011;2938;52.254;12.988;2022-09-12T08:12:06;2.38;;;1.60;;
5823;SDS011;2938;52.254;12.988;2022-09-12T08:14:43;12.75;;;1.88;;
5823;SDS011;2938;52.254;12.988;2022-09-12T08:17:15;2.50;;;1.77;;
5823;SDS011;2938;52.254;12.988;2022-09-12T08:19:43;1.73;;;1.60;;
5823;SDS011;2938;52.254;12.988;2022-09-12T08:22:12;2.92;;;1.30;;
5823;SDS011;2938;52.254;12.988;2022-09-12T08:24:37;6.10;;;2.17;;
5823;SDS011;2938;52.254;12.988;2022-09-12T08:27:35;4.07;;;1.60;;
5823;SDS011;2938;52.254;12.988;2022-09-12T08:30:02;2.00;;;1.85;;
5823;SDS011;2938;52.254;12.988;2022-09-12T08:32:35;1.38;;;1.27;;
5823;SDS011;2938;52.254;12.988;2022-09-12T08:35:01;4.63;;;1.50;;
5823;SDS011;2938;52.254;12.988;2022-09-12T08:37:29;2.17;;;1.42;;
5823;SDS011;2938;52.254;12.988;2022-09-12T08:40:01;4.53;;;1.67;;
5823;SDS011;2938;52.254;12.988;2022-09-12T08:42:46;1.37;;;1.13;;
5823;SDS011;2938;52.254;12.988;2022-09-12T08:47:50;2.00;;;1.38;;
5823;SDS011;2938;52.254;12.988;2022-09-12T08:50:17;2.83;;;1.90;;
5823;SDS011;2938;52.254;12.988;2022-09-12T08:52:47;5.05;;;1.50;;
5823;SDS011;2938;52.254;12.988;2022-09-12T08:57:58;3.33;;;1.75;;
5823;SDS011;2938;52.254;12.988;2022-09-12T09:00:37;1.92;;;1.67;;
5823;SDS011;2938;52.254;12.988;2022-09-12T09:03:34;1.65;;;1.40;;
5823;SDS011;2938;52.254;12.988;2022-09-12T09:09:08;2.35;;;1.30;;
5823;SDS011;2938;52.254;12.988;2022-09-12T09:17:23;3.65;;;1.52;;
5823;SDS011;2938;52.254;12.988;2022-09-12T09:19:58;2.78;;;1.63;;
5823;SDS011;2938;52.254;12.988;2022-09-12T09:25:16;6.00;;;1.48;;
5823;SDS011;2938;52.254;12.988;2022-09-12T09:27:55;1.67;;;1.45;;
5823;SDS011;2938;52.254;12.988;2022-09-12T09:30:23;2.67;;;1.13;;
5823;SDS011;2938;52.254;12.988;2022-09-12T09:32:56;1.10;;;1.00;;
5823;SDS011;2938;52.254;12.988;2022-09-12T09:35:42;2.55;;;1.40;;
5823;SDS011;2938;52.254;12.988;2022-09-12T09:38:22;1.95;;;1.63;;
5823;SDS011;2938;52.254;12.988;2022-09-12T09:43:42;2.78;;;1.65;;
5823;SDS011;2938;52.254;12.988;2022-09-12T09:46:08;2.10;;;1.77;;
5823;SDS011;2938;52.254;12.988;2022-09-12T09:48:34;2.75;;;1.50;;
5823;SDS011;2938;52.254;12.988;2022-09-12T09:51:02;3.45;;;2.53;;
5823;SDS011;2938;52.254;12.988;2022-09-12T09:56:29;2.92;;;1.95;;
5823;SDS011;2938;52.254;12.988;2022-09-12T09:58:56;2.65;;;1.90;;
5823;SDS011;2938;52.254;12.988;2022-09-12T10:01:49;5.93;;;2.00;;
5823;SDS011;2938;52.254;12.988;2022-09-12T10:04:17;2.00;;;1.80;;
5823;SDS011;2938;52.254;12.988;2022-09-12T10:06:44;3.45;;;2.38;;
5823;SDS011;2938;52.254;12.988;2022-09-12T10:11:38;3.95;;;2.15;;
5823;SDS011;2938;52.254;12.988;2022-09-12T10:14:04;4.65;;;1.92;;
5823;SDS011;2938;52.254;12.988;2022-09-12T10:16:30;3.10;;;1.90;;
5823;SDS011;2938;52.254;12.988;2022-09-12T10:19:00;4.20;;;2.30;;
5823;SDS011;2938;52.254;12.988;2022-09-12T10:21:32;4.68;;;2.35;;
5823;SDS011;2938;52.254;12.988;2022-09-12T10:26:52;8.13;;;2.53;;
5823;SDS011;2938;52.254;12.988;2022-09-12T10:31:56;6.65;;;1.92;;
5823;SDS011;2938;52.254;12.988;2022-09-12T10:36:53;4.13;;;1.98;;
5823;SDS011;2938;52.254;12.988;2022-09-12T10:39:24;2.50;;;1.80;;
5823;SDS011;2938;52.254;12.988;2022-09-12T10:41:50;4.20;;;1.73;;
5823;SDS011;2938;52.254;12.988;2022-09-12T10:44:17;4.75;;;1.92;;
5823;SDS011;2938;52.254;12.988;2022-09-12T10:46:48;3.42;;;1.88;;
5823;SDS011;2938;52.254;12.988;2022-09-12T10:51:51;2.13;;;1.58;;
5823;SDS011;2938;52.254;12.988;2022-09-12T10:54:18;2.63;;;2.22;;
5823;SDS011;2938;52.254;12.988;2022-09-12T11:00:02;1.55;;;1.42;;
5823;SDS011;2938;52.254;12.988;2022-09-12T11:02:44;12.15;;;2.40;;
5823;SDS011;2938;52.254;12.988;2022-09-12T11:05:17;5.60;;;2.10;;
5823;SDS011;2938;52.254;12.988;2022-09-12T11:10:38;2.90;;;2.35;;
5823;SDS011;2938;52.254;12.988;2022-09-12T11:15:53;4.10;;;1.67;;
5823;SDS011;2938;52.254;12.988;2022-09-12T11:18:33;1.98;;;1.77;;
5823;SDS011;2938;52.254;12.988;2022-09-12T11:21:14;3.45;;;1.42;;
5823;SDS011;2938;52.254;12.988;2022-09-12T11:29:57;7.40;;;1.73;;
5823;SDS011;2938;52.254;12.988;2022-09-12T11:32:44;3.33;;;1.67;;
5823;SDS011;2938;52.254;12.988;2022-09-12T11:35:33;2.80;;;1.83;;
5823;SDS011;2938;52.254;12.988;2022-09-12T11:46:04;4.75;;;2.10;;
5823;SDS011;2938;52.254;12.988;2022-09-12T11:51:23;3.50;;;2.63;;
5823;SDS011;2938;52.254;12.988;2022-09-12T11:54:17;2.28;;;1.92;;
5823;SDS011;2938;52.254;12.988;2022-09-12T11:56:58;2.63;;;1.83;;
5823;SDS011;2938;52.254;12.988;2022-09-12T11:59:43;4.95;;;2.28;;
5823;SDS011;2938;52.254;12.988;2022-09-12T12:07:40;8.13;;;1.65;;
5823;SDS011;2938;52.254;12.988;2022-09-12T12:10:23;1.52;;;1.38;;
5823;SDS011;2938;52.254;12.988;2022-09-12T12:18:27;4.18;;;2.33;;
5823;SDS011;2938;52.254;12.988;2022-09-12T12:20:53;7.95;;;2.70;;
5823;SDS011;2938;52.254;12.988;2022-09-12T12:23:26;2.22;;;1.65;;
5823;SDS011;2938;52.254;12.988;2022-09-12T12:25:55;2.28;;;1.40;;
5823;SDS011;2938;52.254;12.988;2022-09-12T12:31:06;6.18;;;1.65;;
5823;SDS011;2938;52.254;12.988;2022-09-12T12:36:02;2.65;;;1.60;;
5823;SDS011;2938;52.254;12.988;2022-09-12T12:38:41;5.47;;;1.65;;
5823;SDS011;2938;52.254;12.988;2022-09-12T12:43:42;2.08;;;1.85;;
5823;SDS011;2938;52.254;12.988;2022-09-12T12:46:22;4.13;;;1.90;;
5823;SDS011;2938;52.254;12.988;2022-09-12T12:51:54;5.78;;;2.20;;
5823;SDS011;2938;52.254;12.988;2022-09-12T12:57:05;2.13;;;1.92;;
5823;SDS011;2938;52.254;12.988;2022-09-12T12:59:55;4.15;;;2.83;;
5823;SDS011;2938;52.254;12.988;2022-09-12T13:04:57;2.75;;;2.20;;
5823;SDS011;2938;52.254;12.988;2022-09-12T13:07:29;6.30;;;2.00;;
5823;SDS011;2938;52.254;12.988;2022-09-12T13:10:02;2.97;;;1.48;;
5823;SDS011;2938;52.254;12.988;2022-09-12T13:12:36;1.90;;;1.73;;
5823;SDS011;2938;52.254;12.988;2022-09-12T13:18:05;2.45;;;1.83;;
5823;SDS011;2938;52.254;12.988;2022-09-12T13:20:32;1.98;;;1.75;;
5823;SDS011;2938;52.254;12.988;2022-09-12T13:23:02;2.10;;;2.00;;
5823;SDS011;2938;52.254;12.988;2022-09-12T13:25:29;2.97;;;2.03;;
5823;SDS011;2938;52.254;12.988;2022-09-12T13:33:53;2.05;;;1.77;;
5823;SDS011;2938;52.254;12.988;2022-09-12T13:36:24;5.63;;;1.88;;
5823;SDS011;2938;52.254;12.988;2022-09-12T13:41:54;2.85;;;1.70;;
5823;SDS011;2938;52.254;12.988;2022-09-12T13:44:45;2.00;;;1.63;;
5823;SDS011;2938;52.254;12.988;2022-09-12T13:47:15;2.55;;;1.88;;
5823;SDS011;2938;52.254;12.988;2022-09-12T13:49:47;2.65;;;1.77;;
5823;SDS011;2938;52.254;12.988;2022-09-12T13:52:18;3.28;;;1.92;;
5823;SDS011;2938;52.254;12.988;2022-09-12T13:54:48;1.52;;;1.38;;
5823;SDS011;2938;52.254;12.988;2022-09-12T13:57:26;1.73;;;1.63;;
5823;SDS011;2938;52.254;12.988;2022-09-12T13:59:55;6.75;;;2.33;;
5823;SDS011;2938;52.254;12.988;2022-09-12T14:02:26;6.18;;;1.83;;
5823;SDS011;2938;52.254;12.988;2022-09-12T14:07:46;3.28;;;1.58;;
5823;SDS011;2938;52.254;12.988;2022-09-12T14:10:25;5.60;;;1.85;;
5823;SDS011;2938;52.254;12.988;2022-09-12T14:12:55;5.23;;;1.93;;
5823;SDS011;2938;52.254;12.988;2022-09-12T14:15:22;3.38;;;1.95;;
5823;SDS011;2938;52.254;12.988;2022-09-12T14:17:52;6.25;;;1.90;;
5823;SDS011;2938;52.254;12.988;2022-09-12T14:20:25;2.50;;;2.08;;
5823;SDS011;2938;52.254;12.988;2022-09-12T14:22:58;3.97;;;1.97;;
5823;SDS011;2938;52.254;12.988;2022-09-12T14:25:25;5.80;;;2.47;;
5823;SDS011;2938;52.254;12.988;2022-09-12T14:27:55;4.88;;;1.65;;
5823;SDS011;2938;52.254;12.988;2022-09-12T14:30:28;2.55;;;1.95;;
5823;SDS011;2938;52.254;12.988;2022-09-12T14:35:37;1.83;;;1.65;;
5823;SDS011;2938;52.254;12.988;2022-09-12T14:38:23;2.28;;;2.05;;
5823;SDS011;2938;52.254;12.988;2022-09-12T14:40:51;5.45;;;2.60;;
5823;SDS011;2938;52.254;12.988;2022-09-12T14:46:02;7.30;;;2.38;;
5823;SDS011;2938;52.254;12.988;2022-09-12T14:48:36;2.55;;;1.70;;
5823;SDS011;2938;52.254;12.988;2022-09-12T14:51:21;2.53;;;1.85;;
5823;SDS011;2938;52.254;12.988;2022-09-12T14:53:50;5.57;;;2.63;;
5823;SDS011;2938;52.254;12.988;2022-09-12T14:56:15;3.10;;;2.00;;
5823;SDS011;2938;52.254;12.988;2022-09-12T14:58:45;3.33;;;1.40;;
5823;SDS011;2938;52.254;12.988;2022-09-12T15:01:31;2.42;;;1.70;;
5823;SDS011;2938;52.254;12.988;2022-09-12T15:03:56;8.13;;;2.85;;
5823;SDS011;2938;52.254;12.988;2022-09-12T15:08:48;6.10;;;2.28;;
5823;SDS011;2938;52.254;12.988;2022-09-12T15:11:13;5.40;;;2.97;;
5823;SDS011;2938;52.254;12.988;2022-09-12T15:13:39;5.28;;;2.25;;
5823;SDS011;2938;52.254;12.988;2022-09-12T15:16:06;4.90;;;2.88;;
5823;SDS011;2938;52.254;12.988;2022-09-12T15:18:33;5.70;;;2.47;;
5823;SDS011;2938;52.254;12.988;2022-09-12T15:21:03;6.43;;;2.03;;
5823;SDS011;2938;52.254;12.988;2022-09-12T15:23:34;2.55;;;1.92;;
5823;SDS011;2938;52.254;12.988;2022-09-12T15:26:10;4.00;;;2.35;;
5823;SDS011;2938;52.254;12.988;2022-09-12T15:28:43;4.97;;;2.63;;
5823;SDS011;2938;52.254;12.988;2022-09-12T15:31:14;28.98;;;3.03;;
5823;SDS011;2938;52.254;12.988;2022-09-12T15:33:50;6.27;;;2.53;;
5823;SDS011;2938;52.254;12.988;2022-09-12T15:36:17;4.53;;;3.03;;
5823;SDS011;2938;52.254;12.988;2022-09-12T15:38:43;2.08;;;1.83;;
5823;SDS011;2938;52.254;12.988;2022-09-12T15:41:20;3.03;;;1.85;;
5823;SDS011;2938;52.254;12.988;2022-09-12T15:43:47;3.00;;;2.00;;
5823;SDS011;2938;52.254;12.988;2022-09-12T15:46:13;9.02;;;2.80;;
5823;SDS011;2938;52.254;12.988;2022-09-12T15:48:39;7.18;;;2.28;;
5823;SDS011;2938;52.254;12.988;2022-09-12T15:51:09;5.25;;;2.17;;
5823;SDS011;2938;52.254;12.988;2022-09-12T15:53:36;4.13;;;2.35;;
5823;SDS011;2938;52.254;12.988;2022-09-12T15:56:02;2.53;;;2.28;;
5823;SDS011;2938;52.254;12.988;2022-09-12T15:58:28;4.40;;;2.35;;
5823;SDS011;2938;52.254;12.988;2022-09-12T16:00:53;4.60;;;2.13;;
5823;SDS011;2938;52.254;12.988;2022-09-12T16:03:23;4.07;;;2.30;;
5823;SDS011;2938;52.254;12.988;2022-09-12T16:05:54;2.60;;;2.28;;
5823;SDS011;2938;52.254;12.988;2022-09-12T16:08:21;2.28;;;2.00;;
5823;SDS011;2938;52.254;12.988;2022-09-12T16:10:48;2.83;;;2.08;;
5823;SDS011;2938;52.254;12.988;2022-09-12T16:13:17;3.53;;;2.72;;
5823;SDS011;2938;52.254;12.988;2022-09-12T16:15:43;4.25;;;1.98;;
5823;SDS011;2938;52.254;12.988;2022-09-12T16:18:08;2.13;;;1.95;;
5823;SDS011;2938;52.254;12.988;2022-09-12T16:20:34;3.30;;;2.25;;
5823;SDS011;2938;52.254;12.988;2022-09-12T16:22:59;2.05;;;1.92;;
5823;SDS011;2938;52.254;12.988;2022-09-12T16:25:25;3.22;;;2.30;;
5823;SDS011;2938;52.254;12.988;2022-09-12T16:27:53;3.33;;;2.85;;
5823;SDS011;2938;52.254;12.988;2022-09-12T16:30:18;4.22;;;2.60;;
5823;SDS011;2938;52.254;12.988;2022-09-12T16:32:44;4.05;;;2.45;;
5823;SDS011;2938;52.254;12.988;2022-09-12T16:35:10;2.03;;;1.83;;
5823;SDS011;2938;52.254;12.988;2022-09-12T16:37:35;5.60;;;2.83;;
5823;SDS011;2938;52.254;12.988;2022-09-12T16:40:02;8.10;;;2.30;;
5823;SDS011;2938;52.254;12.988;2022-09-12T16:42:28;7.20;;;2.88;;
5823;SDS011;2938;52.254;12.988;2022-09-12T16:44:54;7.07;;;4.22;;
5823;SDS011;2938;52.254;12.988;2022-09-12T16:47:19;2.47;;;2.20;;
5823;SDS011;2938;52.254;12.988;2022-09-12T16:49:45;7.50;;;2.67;;
5823;SDS011;2938;52.254;12.988;2022-09-12T16:52:10;19.63;;;4.32;;
5823;SDS011;2938;52.254;12.988;2022-09-12T16:54:38;3.97;;;2.20;;
5823;SDS011;2938;52.254;12.988;2022-09-12T16:57:04;4.20;;;2.08;;
5823;SDS011;2938;52.254;12.988;2022-09-12T16:59:30;2.53;;;1.80;;
5823;SDS011;2938;52.254;12.988;2022-09-12T17:01:56;3.63;;;2.22;;
5823;SDS011;2938;52.254;12.988;2022-09-12T17:04:21;5.53;;;2.88;;
5823;SDS011;2938;52.254;12.988;2022-09-12T17:06:47;5.57;;;2.38;;
5823;SDS011;2938;52.254;12.988;2022-09-12T17:09:12;3.10;;;2.55;;
5823;SDS011;2938;52.254;12.988;2022-09-12T17:11:43;3.50;;;2.15;;
5823;SDS011;2938;52.254;12.988;2022-09-12T17:14:13;3.50;;;2.42;;
5823;SDS011;2938;52.254;12.988;2022-09-12T17:20:10;2.33;;;2.13;;
5823;SDS011;2938;52.254;12.988;2022-09-12T17:22:39;3.00;;;2.08;;
5823;SDS011;2938;52.254;12.988;2022-09-12T17:25:04;2.15;;;1.92;;
5823;SDS011;2938;52.254;12.988;2022-09-12T17:27:32;5.70;;;2.20;;
5823;SDS011;2938;52.254;12.988;2022-09-12T17:30:01;4.13;;;2.63;;
5823;SDS011;2938;52.254;12.988;2022-09-12T17:32:28;2.85;;;1.95;;
5823;SDS011;2938;52.254;12.988;2022-09-12T17:34:53;2.65;;;2.40;;
5823;SDS011;2938;52.254;12.988;2022-09-12T17:37:19;4.75;;;2.05;;
5823;SDS011;2938;52.254;12.988;2022-09-12T17:40:06;3.92;;;2.25;;
5823;SDS011;2938;52.254;12.988;2022-09-12T17:42:31;5.82;;;2.53;;
5823;SDS011;2938;52.254;12.988;2022-09-12T17:44:57;4.20;;;2.83;;
5823;SDS011;2938;52.254;12.988;2022-09-12T17:47:25;10.32;;;2.55;;
5823;SDS011;2938;52.254;12.988;2022-09-12T17:49:51;4.22;;;2.85;;
5823;SDS011;2938;52.254;12.988;2022-09-12T17:52:20;2.80;;;2.13;;
5823;SDS011;2938;52.254;12.988;2022-09-12T17:54:46;4.00;;;2.28;;
5823;SDS011;2938;52.254;12.988;2022-09-12T17:57:14;2.20;;;2.00;;